sensor_id;sensor_type;location;lat;lon;timestamp;P1;durP1;ratioP1;P2;durP2;ratioP2
84723;SDS011;74944;52.322;16.918;2024-01-15T00:01:59;16.83;;;10.00;;
84723;SDS011;74944;52.322;16.918;2024-01-15T00:04:25;24.48;;;11.80;;
84723;SDS011;74944;52.322;16.918;2024-01-15T00:06:51;24.98;;;11.00;;
84723;SDS011;74944;52.322;16.918;2024-01-15T00:09:16;22.40;;;11.00;;
84723;SDS011;74944;52.322;16.918;2024-01-15T00:11:42;21.88;;;11.13;;
84723;SDS011;74944;52.322;16.918;2024-01-15T00:14:08;20.88;;;10.10;;
84723;SDS011;74944;52.322;16.918;2024-01-15T00:16:34;21.15;;;10.82;;
84723;SDS011;74944;52.322;16.918;2024-01-15T00:19:00;22.63;;;11.63;;
84723;SDS011;74944;52.322;16.918;2024-01-15T00:21:25;19.90;;;10.25;;
84723;SDS011;74944;52.322;16.918;2024-01-15T00:23:52;21.45;;;10.07;;
84723;SDS011;74944;52.322;16.918;2024-01-15T00:26:18;28.65;;;11.95;;
84723;SDS011;74944;52.322;16.918;2024-01-15T00:28:44;21.77;;;10.32;;
84723;SDS011;74944;52.322;16.918;2024-01-15T00:31:09;23.90;;;12.02;;
84723;SDS011;74944;52.322;16.918;2024-01-15T00:33:35;23.42;;;11.50;;
84723;SDS011;74944;52.322;16.918;2024-01-15T00:36:01;25.90;;;11.40;;
84723;SDS011;74944;52.322;16.918;2024-01-15T00:38:27;27.25;;;11.82;;
84723;SDS011;74944;52.322;16.918;2024-01-15T00:40:52;22.63;;;11.40;;
84723;SDS011;74944;52.322;16.918;2024-01-15T00:43:20;24.50;;;12.05;;
84723;SDS011;74944;52.322;16.918;2024-01-15T00:45:46;20.67;;;10.27;;
84723;SDS011;74944;52.322;16.918;2024-01-15T00:48:12;21.05;;;9.70;;
84723;SDS011;74944;52.322;16.918;2024-01-15T00:50:37;28.00;;;12.45;;
84723;SDS011;74944;52.322;16.918;2024-01-15T00:53:03;25.08;;;11.73;;
84723;SDS011;74944;52.322;16.918;2024-01-15T00:55:29;21.05;;;10.85;;
84723;SDS011;74944;52.322;16.918;2024-01-15T00:57:55;24.77;;;11.95;;
84723;SDS011;74944;52.322;16.918;2024-01-15T01:00:20;26.13;;;12.05;;
84723;SDS011;74944;52.322;16.918;2024-01-15T01:02:46;20.27;;;9.75;;
84723;SDS011;74944;52.322;16.918;2024-01-15T01:05:12;26.40;;;12.05;;
84723;SDS011;74944;52.322;16.918;2024-01-15T01:07:38;29.00;;;13.18;;
84723;SDS011;74944;52.322;16.918;2024-01-15T01:10:04;26.08;;;13.43;;
84723;SDS011;74944;52.322;16.918;2024-01-15T01:12:30;25.70;;;11.98;;
84723;SDS011;74944;52.322;16.918;2024-01-15T01:14:55;24.23;;;12.32;;
84723;SDS011;74944;52.322;16.918;2024-01-15T01:17:22;25.80;;;12.10;;
84723;SDS011;74944;52.322;16.918;2024-01-15T01:19:47;30.10;;;12.85;;
84723;SDS011;74944;52.322;16.918;2024-01-15T01:22:15;25.73;;;11.85;;
84723;SDS011;74944;52.322;16.918;2024-01-15T01:24:40;26.58;;;11.38;;
84723;SDS011;74944;52.322;16.918;2024-01-15T01:27:06;20.85;;;9.52;;
84723;SDS011;74944;52.322;16.918;2024-01-15T01:29:32;25.80;;;12.70;;
84723;SDS011;74944;52.322;16.918;2024-01-15T01:31:58;27.80;;;11.88;;
84723;SDS011;74944;52.322;16.918;2024-01-15T01:34:23;23.33;;;10.20;;
84723;SDS011;74944;52.322;16.918;2024-01-15T01:36:49;27.10;;;11.32;;
84723;SDS011;74944;52.322;16.918;2024-01-15T01:39:15;27.17;;;12.52;;
84723;SDS011;74944;52.322;16.918;2024-01-15T01:41:41;23.33;;;10.40;;
84723;SDS011;74944;52.322;16.918;2024-01-15T01:44:07;22.33;;;9.80;;
84723;SDS011;74944;52.322;16.918;2024-01-15T01:46:33;27.67;;;12.35;;
84723;SDS011;74944;52.322;16.918;2024-01-15T01:49:04;27.95;;;11.80;;
84723;SDS011;74944;52.322;16.918;2024-01-15T01:51:31;24.67;;;10.43;;
84723;SDS011;74944;52.322;16.918;2024-01-15T01:53:59;25.75;;;13.30;;
84723;SDS011;74944;52.322;16.918;2024-01-15T01:56:26;21.90;;;10.95;;
84723;SDS011;74944;52.322;16.918;2024-01-15T01:58:51;23.10;;;10.38;;
84723;SDS011;74944;52.322;16.918;2024-01-15T02:01:18;25.77;;;12.65;;
84723;SDS011;74944;52.322;16.918;2024-01-15T02:03:44;20.50;;;10.45;;
84723;SDS011;74944;52.322;16.918;2024-01-15T02:06:10;21.50;;;10.68;;
84723;SDS011;74944;52.322;16.918;2024-01-15T02:08:36;21.20;;;10.32;;
84723;SDS011;74944;52.322;16.918;2024-01-15T02:11:02;20.02;;;10.07;;
84723;SDS011;74944;52.322;16.918;2024-01-15T02:13:28;20.02;;;9.75;;
84723;SDS011;74944;52.322;16.918;2024-01-15T02:15:54;21.63;;;9.98;;
84723;SDS011;74944;52.322;16.918;2024-01-15T02:18:20;23.83;;;11.30;;
84723;SDS011;74944;52.322;16.918;2024-01-15T02:20:46;19.77;;;9.57;;
84723;SDS011;74944;52.322;16.918;2024-01-15T02:23:12;19.08;;;9.55;;
84723;SDS011;74944;52.322;16.918;2024-01-15T02:25:46;18.45;;;8.95;;
84723;SDS011;74944;52.322;16.918;2024-01-15T02:28:15;18.73;;;9.18;;
84723;SDS011;74944;52.322;16.918;2024-01-15T02:30:43;21.83;;;9.45;;
84723;SDS011;74944;52.322;16.918;2024-01-15T02:33:09;21.17;;;10.25;;
84723;SDS011;74944;52.322;16.918;2024-01-15T02:35:36;21.95;;;9.77;;
84723;SDS011;74944;52.322;16.918;2024-01-15T02:38:02;23.10;;;10.77;;
84723;SDS011;74944;52.322;16.918;2024-01-15T02:40:29;22.48;;;10.40;;
84723;SDS011;74944;52.322;16.918;2024-01-15T02:42:55;17.95;;;8.73;;
84723;SDS011;74944;52.322;16.918;2024-01-15T02:45:23;21.73;;;10.25;;
84723;SDS011;74944;52.322;16.918;2024-01-15T02:47:49;19.27;;;9.23;;
84723;SDS011;74944;52.322;16.918;2024-01-15T02:50:15;15.73;;;8.30;;
84723;SDS011;74944;52.322;16.918;2024-01-15T02:52:43;19.40;;;8.95;;
84723;SDS011;74944;52.322;16.918;2024-01-15T02:55:09;20.98;;;9.02;;
84723;SDS011;74944;52.322;16.918;2024-01-15T02:57:35;20.63;;;9.43;;
84723;SDS011;74944;52.322;16.918;2024-01-15T03:00:01;21.38;;;9.02;;
84723;SDS011;74944;52.322;16.918;2024-01-15T03:02:28;21.02;;;9.77;;
84723;SDS011;74944;52.322;16.918;2024-01-15T03:04:54;22.98;;;9.70;;
84723;SDS011;74944;52.322;16.918;2024-01-15T03:07:20;18.73;;;7.47;;
84723;SDS011;74944;52.322;16.918;2024-01-15T03:09:45;18.38;;;8.40;;
84723;SDS011;74944;52.322;16.918;2024-01-15T03:12:11;18.02;;;8.98;;
84723;SDS011;74944;52.322;16.918;2024-01-15T03:14:37;19.27;;;9.95;;
84723;SDS011;74944;52.322;16.918;2024-01-15T03:17:02;18.20;;;9.18;;
84723;SDS011;74944;52.322;16.918;2024-01-15T03:19:28;15.52;;;7.43;;
84723;SDS011;74944;52.322;16.918;2024-01-15T03:21:55;18.05;;;8.07;;
84723;SDS011;74944;52.322;16.918;2024-01-15T03:24:22;13.23;;;5.93;;
84723;SDS011;74944;52.322;16.918;2024-01-15T03:26:47;19.92;;;9.43;;
84723;SDS011;74944;52.322;16.918;2024-01-15T03:31:39;22.17;;;9.30;;
84723;SDS011;74944;52.322;16.918;2024-01-15T03:34:04;19.42;;;10.05;;
84723;SDS011;74944;52.322;16.918;2024-01-15T03:38:56;20.40;;;8.95;;
84723;SDS011;74944;52.322;16.918;2024-01-15T03:41:21;18.98;;;8.98;;
84723;SDS011;74944;52.322;16.918;2024-01-15T03:43:49;23.23;;;9.48;;
84723;SDS011;74944;52.322;16.918;2024-01-15T03:46:14;19.02;;;9.05;;
84723;SDS011;74944;52.322;16.918;2024-01-15T03:48:40;20.30;;;8.77;;
84723;SDS011;74944;52.322;16.918;2024-01-15T03:51:06;21.05;;;8.70;;
84723;SDS011;74944;52.322;16.918;2024-01-15T03:53:31;20.70;;;9.82;;
84723;SDS011;74944;52.322;16.918;2024-01-15T03:55:57;19.70;;;9.15;;
84723;SDS011;74944;52.322;16.918;2024-01-15T03:58:23;16.25;;;7.28;;
84723;SDS011;74944;52.322;16.918;2024-01-15T04:00:49;21.48;;;9.43;;
84723;SDS011;74944;52.322;16.918;2024-01-15T04:03:16;18.35;;;7.97;;
84723;SDS011;74944;52.322;16.918;2024-01-15T04:05:42;20.85;;;9.68;;
84723;SDS011;74944;52.322;16.918;2024-01-15T04:08:08;21.80;;;11.18;;
84723;SDS011;74944;52.322;16.918;2024-01-15T04:10:33;20.50;;;8.77;;
84723;SDS011;74944;52.322;16.918;2024-01-15T04:12:59;19.60;;;9.57;;
84723;SDS011;74944;52.322;16.918;2024-01-15T04:15:26;16.77;;;7.20;;
84723;SDS011;74944;52.322;16.918;2024-01-15T04:17:53;20.88;;;9.75;;
84723;SDS011;74944;52.322;16.918;2024-01-15T04:20:18;18.70;;;9.13;;
84723;SDS011;74944;52.322;16.918;2024-01-15T04:22:44;21.13;;;8.23;;
84723;SDS011;74944;52.322;16.918;2024-01-15T04:25:10;17.15;;;7.88;;
84723;SDS011;74944;52.322;16.918;2024-01-15T04:27:35;14.57;;;7.57;;
84723;SDS011;74944;52.322;16.918;2024-01-15T04:30:01;14.55;;;7.22;;
84723;SDS011;74944;52.322;16.918;2024-01-15T04:32:27;17.85;;;8.18;;
84723;SDS011;74944;52.322;16.918;2024-01-15T04:34:52;17.20;;;8.45;;
84723;SDS011;74944;52.322;16.918;2024-01-15T04:37:18;16.65;;;8.75;;
84723;SDS011;74944;52.322;16.918;2024-01-15T04:39:44;14.25;;;6.88;;
84723;SDS011;74944;52.322;16.918;2024-01-15T04:42:10;14.27;;;6.70;;
84723;SDS011;74944;52.322;16.918;2024-01-15T04:44:35;20.42;;;9.38;;
84723;SDS011;74944;52.322;16.918;2024-01-15T04:47:01;17.80;;;8.57;;
84723;SDS011;74944;52.322;16.918;2024-01-15T04:49:27;19.05;;;10.07;;
84723;SDS011;74944;52.322;16.918;2024-01-15T04:51:54;17.05;;;8.05;;
84723;SDS011;74944;52.322;16.918;2024-01-15T04:54:20;16.08;;;7.88;;
84723;SDS011;74944;52.322;16.918;2024-01-15T04:56:46;14.77;;;7.38;;
84723;SDS011;74944;52.322;16.918;2024-01-15T04:59:12;14.30;;;6.75;;
84723;SDS011;74944;52.322;16.918;2024-01-15T05:01:40;13.55;;;6.53;;
84723;SDS011;74944;52.322;16.918;2024-01-15T05:04:05;10.85;;;5.93;;
84723;SDS011;74944;52.322;16.918;2024-01-15T05:06:31;17.40;;;7.75;;
84723;SDS011;74944;52.322;16.918;2024-01-15T05:08:57;17.90;;;7.93;;
84723;SDS011;74944;52.322;16.918;2024-01-15T05:11:23;18.80;;;9.27;;
84723;SDS011;74944;52.322;16.918;2024-01-15T05:13:49;14.90;;;7.68;;
84723;SDS011;74944;52.322;16.918;2024-01-15T05:18:40;20.00;;;8.20;;
84723;SDS011;74944;52.322;16.918;2024-01-15T05:21:06;13.00;;;6.47;;
84723;SDS011;74944;52.322;16.918;2024-01-15T05:23:31;15.95;;;7.57;;
84723;SDS011;74944;52.322;16.918;2024-01-15T05:25:57;11.50;;;6.13;;
84723;SDS011;74944;52.322;16.918;2024-01-15T05:28:23;12.93;;;6.68;;
84723;SDS011;74944;52.322;16.918;2024-01-15T05:33:16;13.65;;;4.88;;
84723;SDS011;74944;52.322;16.918;2024-01-15T05:35:42;14.23;;;7.13;;
84723;SDS011;74944;52.322;16.918;2024-01-15T05:38:07;10.82;;;5.43;;
84723;SDS011;74944;52.322;16.918;2024-01-15T05:42:59;14.88;;;6.72;;
84723;SDS011;74944;52.322;16.918;2024-01-15T05:45:27;14.18;;;6.60;;
84723;SDS011;74944;52.322;16.918;2024-01-15T05:47:54;15.90;;;6.85;;
84723;SDS011;74944;52.322;16.918;2024-01-15T05:50:21;11.98;;;4.93;;
84723;SDS011;74944;52.322;16.918;2024-01-15T05:52:47;13.13;;;6.07;;
84723;SDS011;74944;52.322;16.918;2024-01-15T05:55:13;11.35;;;5.95;;
84723;SDS011;74944;52.322;16.918;2024-01-15T05:57:39;14.65;;;5.93;;
84723;SDS011;74944;52.322;16.918;2024-01-15T06:00:05;12.25;;;6.32;;
84723;SDS011;74944;52.322;16.918;2024-01-15T06:02:31;12.70;;;5.30;;
84723;SDS011;74944;52.322;16.918;2024-01-15T06:04:57;11.40;;;5.22;;
84723;SDS011;74944;52.322;16.918;2024-01-15T06:07:23;12.98;;;5.95;;
84723;SDS011;74944;52.322;16.918;2024-01-15T06:09:49;10.18;;;5.10;;
84723;SDS011;74944;52.322;16.918;2024-01-15T06:12:14;13.27;;;5.85;;
84723;SDS011;74944;52.322;16.918;2024-01-15T06:17:07;8.35;;;3.90;;
84723;SDS011;74944;52.322;16.918;2024-01-15T06:19:33;10.15;;;4.85;;
84723;SDS011;74944;52.322;16.918;2024-01-15T06:21:59;13.70;;;4.25;;
84723;SDS011;74944;52.322;16.918;2024-01-15T06:24:25;10.30;;;4.90;;
84723;SDS011;74944;52.322;16.918;2024-01-15T06:26:50;11.15;;;4.25;;
84723;SDS011;74944;52.322;16.918;2024-01-15T06:29:16;10.18;;;4.32;;
84723;SDS011;74944;52.322;16.918;2024-01-15T06:31:42;12.65;;;4.78;;
84723;SDS011;74944;52.322;16.918;2024-01-15T06:34:09;10.68;;;4.40;;
84723;SDS011;74944;52.322;16.918;2024-01-15T06:36:35;10.02;;;4.55;;
84723;SDS011;74944;52.322;16.918;2024-01-15T06:39:01;11.90;;;4.72;;
84723;SDS011;74944;52.322;16.918;2024-01-15T06:41:26;11.40;;;4.13;;
84723;SDS011;74944;52.322;16.918;2024-01-15T06:43:52;13.55;;;4.10;;
84723;SDS011;74944;52.322;16.918;2024-01-15T06:46:20;10.50;;;4.78;;
84723;SDS011;74944;52.322;16.918;2024-01-15T06:48:46;13.35;;;4.88;;
84723;SDS011;74944;52.322;16.918;2024-01-15T06:51:12;11.93;;;4.65;;
84723;SDS011;74944;52.322;16.918;2024-01-15T06:53:38;12.23;;;4.18;;
84723;SDS011;74944;52.322;16.918;2024-01-15T06:56:04;8.93;;;4.90;;
84723;SDS011;74944;52.322;16.918;2024-01-15T06:58:32;9.25;;;4.15;;
84723;SDS011;74944;52.322;16.918;2024-01-15T07:00:58;12.32;;;5.57;;
84723;SDS011;74944;52.322;16.918;2024-01-15T07:03:24;9.13;;;4.47;;
84723;SDS011;74944;52.322;16.918;2024-01-15T07:05:49;10.70;;;4.90;;
84723;SDS011;74944;52.322;16.918;2024-01-15T07:08:15;15.85;;;4.72;;
84723;SDS011;74944;52.322;16.918;2024-01-15T07:10:41;12.20;;;5.30;;
84723;SDS011;74944;52.322;16.918;2024-01-15T07:13:07;10.50;;;5.03;;
84723;SDS011;74944;52.322;16.918;2024-01-15T07:15:32;7.47;;;4.13;;
84723;SDS011;74944;52.322;16.918;2024-01-15T07:17:58;10.25;;;5.13;;
84723;SDS011;74944;52.322;16.918;2024-01-15T07:20:24;11.80;;;4.60;;
84723;SDS011;74944;52.322;16.918;2024-01-15T07:25:15;12.07;;;4.57;;
84723;SDS011;74944;52.322;16.918;2024-01-15T07:27:41;14.00;;;4.63;;
84723;SDS011;74944;52.322;16.918;2024-01-15T07:30:10;10.13;;;4.00;;
84723;SDS011;74944;52.322;16.918;2024-01-15T07:32:37;16.35;;;5.75;;
84723;SDS011;74944;52.322;16.918;2024-01-15T07:35:03;13.35;;;4.78;;
84723;SDS011;74944;52.322;16.918;2024-01-15T07:37:30;10.90;;;5.10;;
84723;SDS011;74944;52.322;16.918;2024-01-15T07:39:56;12.55;;;5.18;;
84723;SDS011;74944;52.322;16.918;2024-01-15T07:44:47;11.80;;;4.60;;
84723;SDS011;74944;52.322;16.918;2024-01-15T07:47:14;10.00;;;4.65;;
84723;SDS011;74944;52.322;16.918;2024-01-15T07:49:39;8.98;;;3.88;;
84723;SDS011;74944;52.322;16.918;2024-01-15T07:52:07;12.13;;;5.20;;
84723;SDS011;74944;52.322;16.918;2024-01-15T07:54:32;9.43;;;4.03;;
84723;SDS011;74944;52.322;16.918;2024-01-15T07:57:01;11.10;;;4.60;;
84723;SDS011;74944;52.322;16.918;2024-01-15T07:59:31;10.88;;;3.60;;
84723;SDS011;74944;52.322;16.918;2024-01-15T08:01:58;11.77;;;4.30;;
84723;SDS011;74944;52.322;16.918;2024-01-15T08:04:24;9.52;;;4.35;;
84723;SDS011;74944;52.322;16.918;2024-01-15T08:06:50;10.98;;;4.68;;
84723;SDS011;74944;52.322;16.918;2024-01-15T08:09:16;15.88;;;5.07;;
84723;SDS011;74944;52.322;16.918;2024-01-15T08:11:42;13.70;;;4.88;;
84723;SDS011;74944;52.322;16.918;2024-01-15T08:14:08;11.93;;;4.72;;
84723;SDS011;74944;52.322;16.918;2024-01-15T08:16:35;10.35;;;4.22;;
84723;SDS011;74944;52.322;16.918;2024-01-15T08:19:02;11.77;;;4.43;;
84723;SDS011;74944;52.322;16.918;2024-01-15T08:21:28;10.95;;;4.60;;
84723;SDS011;74944;52.322;16.918;2024-01-15T08:23:57;16.30;;;5.20;;
84723;SDS011;74944;52.322;16.918;2024-01-15T08:26:24;9.07;;;4.28;;
84723;SDS011;74944;52.322;16.918;2024-01-15T08:28:50;11.68;;;4.78;;
84723;SDS011;74944;52.322;16.918;2024-01-15T08:31:16;9.90;;;4.32;;
84723;SDS011;74944;52.322;16.918;2024-01-15T08:33:42;9.27;;;4.28;;
84723;SDS011;74944;52.322;16.918;2024-01-15T08:36:09;9.82;;;4.40;;
84723;SDS011;74944;52.322;16.918;2024-01-15T08:38:35;10.60;;;4.38;;
84723;SDS011;74944;52.322;16.918;2024-01-15T08:41:01;9.38;;;4.55;;
84723;SDS011;74944;52.322;16.918;2024-01-15T08:43:27;9.25;;;4.30;;
84723;SDS011;74944;52.322;16.918;2024-01-15T08:45:53;12.95;;;5.45;;
84723;SDS011;74944;52.322;16.918;2024-01-15T08:48:19;11.00;;;4.85;;
84723;SDS011;74944;52.322;16.918;2024-01-15T08:50:45;11.07;;;5.47;;
84723;SDS011;74944;52.322;16.918;2024-01-15T08:53:11;10.80;;;4.88;;
84723;SDS011;74944;52.322;16.918;2024-01-15T08:55:37;10.02;;;4.60;;
84723;SDS011;74944;52.322;16.918;2024-01-15T08:58:03;11.38;;;5.00;;
84723;SDS011;74944;52.322;16.918;2024-01-15T09:00:29;10.98;;;3.97;;
84723;SDS011;74944;52.322;16.918;2024-01-15T09:02:55;12.48;;;4.35;;
84723;SDS011;74944;52.322;16.918;2024-01-15T09:05:22;9.95;;;5.65;;
84723;SDS011;74944;52.322;16.918;2024-01-15T09:07:48;11.73;;;5.53;;
84723;SDS011;74944;52.322;16.918;2024-01-15T09:10:14;13.30;;;4.82;;
84723;SDS011;74944;52.322;16.918;2024-01-15T09:12:40;10.95;;;4.25;;
84723;SDS011;74944;52.322;16.918;2024-01-15T09:15:06;10.18;;;4.68;;
84723;SDS011;74944;52.322;16.918;2024-01-15T09:17:32;14.93;;;4.95;;
84723;SDS011;74944;52.322;16.918;2024-01-15T09:19:58;10.52;;;4.60;;
84723;SDS011;74944;52.322;16.918;2024-01-15T09:22:23;11.65;;;5.07;;
84723;SDS011;74944;52.322;16.918;2024-01-15T09:24:49;10.68;;;4.70;;
84723;SDS011;74944;52.322;16.918;2024-01-15T09:27:15;13.43;;;4.55;;
84723;SDS011;74944;52.322;16.918;2024-01-15T09:29:41;8.73;;;4.53;;
84723;SDS011;74944;52.322;16.918;2024-01-15T09:32:08;9.63;;;3.63;;
84723;SDS011;74944;52.322;16.918;2024-01-15T09:34:35;7.85;;;3.88;;
84723;SDS011;74944;52.322;16.918;2024-01-15T09:37:01;11.38;;;5.00;;
84723;SDS011;74944;52.322;16.918;2024-01-15T09:39:27;13.13;;;4.75;;
84723;SDS011;74944;52.322;16.918;2024-01-15T09:41:55;9.10;;;3.60;;
84723;SDS011;74944;52.322;16.918;2024-01-15T09:44:21;9.10;;;3.80;;
84723;SDS011;74944;52.322;16.918;2024-01-15T09:46:47;12.07;;;3.33;;
84723;SDS011;74944;52.322;16.918;2024-01-15T09:49:16;8.85;;;3.35;;
84723;SDS011;74944;52.322;16.918;2024-01-15T09:51:42;7.13;;;3.05;;
84723;SDS011;74944;52.322;16.918;2024-01-15T09:54:08;9.45;;;3.97;;
84723;SDS011;74944;52.322;16.918;2024-01-15T09:56:34;11.75;;;4.25;;
84723;SDS011;74944;52.322;16.918;2024-01-15T09:59:01;11.35;;;5.20;;
84723;SDS011;74944;52.322;16.918;2024-01-15T10:01:27;10.63;;;4.78;;
84723;SDS011;74944;52.322;16.918;2024-01-15T10:03:54;11.15;;;4.25;;
84723;SDS011;74944;52.322;16.918;2024-01-15T10:06:21;11.00;;;4.72;;
84723;SDS011;74944;52.322;16.918;2024-01-15T10:08:48;9.73;;;4.88;;
84723;SDS011;74944;52.322;16.918;2024-01-15T10:11:16;10.15;;;4.55;;
84723;SDS011;74944;52.322;16.918;2024-01-15T10:13:45;9.55;;;4.20;;
84723;SDS011;74944;52.322;16.918;2024-01-15T10:16:12;9.90;;;4.35;;
84723;SDS011;74944;52.322;16.918;2024-01-15T10:18:38;9.55;;;3.10;;
84723;SDS011;74944;52.322;16.918;2024-01-15T10:21:07;11.27;;;4.20;;
84723;SDS011;74944;52.322;16.918;2024-01-15T10:23:33;11.52;;;3.65;;
84723;SDS011;74944;52.322;16.918;2024-01-15T10:25:59;9.30;;;3.67;;
84723;SDS011;74944;52.322;16.918;2024-01-15T10:28:26;6.65;;;3.70;;
84723;SDS011;74944;52.322;16.918;2024-01-15T10:30:53;8.85;;;2.85;;
84723;SDS011;74944;52.322;16.918;2024-01-15T10:33:22;7.07;;;2.78;;
84723;SDS011;74944;52.322;16.918;2024-01-15T10:35:55;9.45;;;2.90;;
84723;SDS011;74944;52.322;16.918;2024-01-15T10:38:22;7.97;;;2.85;;
84723;SDS011;74944;52.322;16.918;2024-01-15T10:40:52;9.05;;;3.88;;
84723;SDS011;74944;52.322;16.918;2024-01-15T10:43:18;12.65;;;3.30;;
84723;SDS011;74944;52.322;16.918;2024-01-15T10:45:48;6.63;;;2.55;;
84723;SDS011;74944;52.322;16.918;2024-01-15T10:48:17;5.93;;;2.50;;
84723;SDS011;74944;52.322;16.918;2024-01-15T10:50:45;8.05;;;2.50;;
84723;SDS011;74944;52.322;16.918;2024-01-15T10:53:12;9.45;;;3.60;;
84723;SDS011;74944;52.322;16.918;2024-01-15T10:55:39;8.82;;;2.85;;
84723;SDS011;74944;52.322;16.918;2024-01-15T10:58:08;9.60;;;2.58;;
84723;SDS011;74944;52.322;16.918;2024-01-15T11:00:35;5.53;;;2.58;;
84723;SDS011;74944;52.322;16.918;2024-01-15T11:03:03;9.43;;;3.30;;
84723;SDS011;74944;52.322;16.918;2024-01-15T11:05:33;7.18;;;2.58;;
84723;SDS011;74944;52.322;16.918;2024-01-15T11:08:07;9.45;;;2.55;;
84723;SDS011;74944;52.322;16.918;2024-01-15T11:15:59;6.63;;;2.85;;
84723;SDS011;74944;52.322;16.918;2024-01-15T11:18:27;6.90;;;2.58;;
84723;SDS011;74944;52.322;16.918;2024-01-15T11:29:06;8.18;;;2.40;;
84723;SDS011;74944;52.322;16.918;2024-01-15T11:32:03;8.48;;;2.70;;
84723;SDS011;74944;52.322;16.918;2024-01-15T11:37:16;9.77;;;2.42;;
84723;SDS011;74944;52.322;16.918;2024-01-15T11:39:42;8.52;;;3.05;;
84723;SDS011;74944;52.322;16.918;2024-01-15T11:42:09;8.07;;;2.20;;
84723;SDS011;74944;52.322;16.918;2024-01-15T11:44:37;9.82;;;3.22;;
84723;SDS011;74944;52.322;16.918;2024-01-15T11:47:04;6.50;;;2.60;;
84723;SDS011;74944;52.322;16.918;2024-01-15T11:52:19;8.95;;;2.90;;
84723;SDS011;74944;52.322;16.918;2024-01-15T11:54:59;7.90;;;2.30;;
84723;SDS011;74944;52.322;16.918;2024-01-15T12:00:28;5.43;;;2.42;;
84723;SDS011;74944;52.322;16.918;2024-01-15T12:03:02;6.22;;;2.22;;
84723;SDS011;74944;52.322;16.918;2024-01-15T12:05:30;5.82;;;2.08;;
84723;SDS011;74944;52.322;16.918;2024-01-15T12:07:55;10.07;;;2.42;;
84723;SDS011;74944;52.322;16.918;2024-01-15T12:10:21;8.18;;;2.67;;
84723;SDS011;74944;52.322;16.918;2024-01-15T12:15:23;7.07;;;3.20;;
84723;SDS011;74944;52.322;16.918;2024-01-15T12:17:49;10.05;;;2.63;;
84723;SDS011;74944;52.322;16.918;2024-01-15T12:20:15;9.68;;;2.63;;
84723;SDS011;74944;52.322;16.918;2024-01-15T12:22:43;8.95;;;2.03;;
84723;SDS011;74944;52.322;16.918;2024-01-15T12:25:09;9.32;;;2.47;;
84723;SDS011;74944;52.322;16.918;2024-01-15T12:27:35;8.70;;;2.15;;
84723;SDS011;74944;52.322;16.918;2024-01-15T12:30:01;7.15;;;1.70;;
84723;SDS011;74944;52.322;16.918;2024-01-15T12:32:26;6.70;;;2.20;;
84723;SDS011;74944;52.322;16.918;2024-01-15T12:34:52;7.35;;;2.33;;
84723;SDS011;74944;52.322;16.918;2024-01-15T12:37:18;7.00;;;2.47;;
84723;SDS011;74944;52.322;16.918;2024-01-15T12:39:45;8.93;;;2.28;;
84723;SDS011;74944;52.322;16.918;2024-01-15T12:42:11;7.57;;;2.17;;
84723;SDS011;74944;52.322;16.918;2024-01-15T12:44:49;5.40;;;2.03;;
84723;SDS011;74944;52.322;16.918;2024-01-15T12:47:14;12.40;;;2.22;;
84723;SDS011;74944;52.322;16.918;2024-01-15T12:49:46;4.30;;;1.67;;
84723;SDS011;74944;52.322;16.918;2024-01-15T12:52:12;5.68;;;1.98;;
84723;SDS011;74944;52.322;16.918;2024-01-15T12:54:37;7.18;;;2.45;;
84723;SDS011;74944;52.322;16.918;2024-01-15T12:57:03;8.23;;;2.63;;
84723;SDS011;74944;52.322;16.918;2024-01-15T12:59:29;9.65;;;2.38;;
84723;SDS011;74944;52.322;16.918;2024-01-15T13:01:54;9.23;;;2.30;;
84723;SDS011;74944;52.322;16.918;2024-01-15T13:04:21;7.22;;;2.35;;
84723;SDS011;74944;52.322;16.918;2024-01-15T13:06:48;6.78;;;1.85;;
84723;SDS011;74944;52.322;16.918;2024-01-15T13:09:15;7.78;;;2.45;;
84723;SDS011;74944;52.322;16.918;2024-01-15T13:11:40;7.70;;;2.50;;
84723;SDS011;74944;52.322;16.918;2024-01-15T13:14:06;6.47;;;1.73;;
84723;SDS011;74944;52.322;16.918;2024-01-15T13:16:32;6.53;;;2.40;;
84723;SDS011;74944;52.322;16.918;2024-01-15T13:18:58;4.53;;;1.60;;
84723;SDS011;74944;52.322;16.918;2024-01-15T13:21:24;7.50;;;3.17;;
84723;SDS011;74944;52.322;16.918;2024-01-15T13:23:50;4.53;;;1.83;;
84723;SDS011;74944;52.322;16.918;2024-01-15T13:26:15;7.30;;;2.58;;
84723;SDS011;74944;52.322;16.918;2024-01-15T13:28:43;6.97;;;2.10;;
84723;SDS011;74944;52.322;16.918;2024-01-15T13:31:09;7.93;;;2.00;;
84723;SDS011;74944;52.322;16.918;2024-01-15T13:33:35;10.05;;;3.63;;
84723;SDS011;74944;52.322;16.918;2024-01-15T13:36:01;6.63;;;1.95;;
84723;SDS011;74944;52.322;16.918;2024-01-15T13:38:27;6.90;;;2.35;;
84723;SDS011;74944;52.322;16.918;2024-01-15T13:40:57;6.50;;;2.25;;
84723;SDS011;74944;52.322;16.918;2024-01-15T13:43:24;6.28;;;2.03;;
84723;SDS011;74944;52.322;16.918;2024-01-15T13:45:51;7.60;;;2.80;;
84723;SDS011;74944;52.322;16.918;2024-01-15T13:48:17;6.50;;;2.40;;
84723;SDS011;74944;52.322;16.918;2024-01-15T13:50:43;5.95;;;1.90;;
84723;SDS011;74944;52.322;16.918;2024-01-15T13:53:09;4.95;;;2.10;;
84723;SDS011;74944;52.322;16.918;2024-01-15T13:55:34;5.22;;;2.22;;
84723;SDS011;74944;52.322;16.918;2024-01-15T13:58:00;7.13;;;2.10;;
84723;SDS011;74944;52.322;16.918;2024-01-15T14:00:29;9.15;;;2.17;;
84723;SDS011;74944;52.322;16.918;2024-01-15T14:02:54;6.78;;;2.65;;
84723;SDS011;74944;52.322;16.918;2024-01-15T14:05:20;4.90;;;1.95;;
84723;SDS011;74944;52.322;16.918;2024-01-15T14:07:46;7.57;;;3.00;;
84723;SDS011;74944;52.322;16.918;2024-01-15T14:10:12;5.28;;;1.90;;
84723;SDS011;74944;52.322;16.918;2024-01-15T14:12:38;7.55;;;2.92;;
84723;SDS011;74944;52.322;16.918;2024-01-15T14:15:06;6.75;;;2.95;;
84723;SDS011;74944;52.322;16.918;2024-01-15T14:17:32;11.13;;;2.50;;
84723;SDS011;74944;52.322;16.918;2024-01-15T14:19:58;5.30;;;2.03;;
84723;SDS011;74944;52.322;16.918;2024-01-15T14:22:24;4.65;;;2.00;;
84723;SDS011;74944;52.322;16.918;2024-01-15T14:24:49;11.07;;;2.78;;
84723;SDS011;74944;52.322;16.918;2024-01-15T14:27:16;6.85;;;2.67;;
84723;SDS011;74944;52.322;16.918;2024-01-15T14:29:42;9.57;;;2.80;;
84723;SDS011;74944;52.322;16.918;2024-01-15T14:32:08;5.18;;;2.30;;
84723;SDS011;74944;52.322;16.918;2024-01-15T14:34:33;5.60;;;1.73;;
84723;SDS011;74944;52.322;16.918;2024-01-15T14:37:01;4.55;;;1.42;;
84723;SDS011;74944;52.322;16.918;2024-01-15T14:39:27;8.57;;;2.25;;
84723;SDS011;74944;52.322;16.918;2024-01-15T14:41:53;4.38;;;1.95;;
84723;SDS011;74944;52.322;16.918;2024-01-15T14:44:18;5.78;;;1.83;;
84723;SDS011;74944;52.322;16.918;2024-01-15T14:46:44;6.20;;;2.30;;
84723;SDS011;74944;52.322;16.918;2024-01-15T14:49:11;4.90;;;1.70;;
84723;SDS011;74944;52.322;16.918;2024-01-15T14:51:37;12.43;;;1.73;;
84723;SDS011;74944;52.322;16.918;2024-01-15T14:54:02;6.75;;;3.00;;
84723;SDS011;74944;52.322;16.918;2024-01-15T14:56:28;15.07;;;4.15;;
84723;SDS011;74944;52.322;16.918;2024-01-15T14:58:54;11.48;;;3.63;;
84723;SDS011;74944;52.322;16.918;2024-01-15T15:01:20;9.75;;;2.92;;
84723;SDS011;74944;52.322;16.918;2024-01-15T15:03:48;4.30;;;1.45;;